Stantonville, Tennessee
Current Conditions -  °F | °C
As of 1:55 PM on Wednesday 17 Dec 2014 (Local Time) from KSNH Reporting Station
Clear Clear  
Wind Chill: 41°   Ceiling: Unl
Heat Index: 45°   Visibility: 10mi
Dew Point: 30°   Wind: 6mph
Humidity: 57%   Direction: 320°NW
Pressure: 30.25"   Gusts: NA
Location:  35.16°N, 88.43°W
Report Text: KSNH 171955Z AUTO 32005KT 10SM CLR 07/M01 A3025 RMK
Loading
Personal Weather Stations






























Interactive Weather Map New forecast layout! Learn more

10-Day Weather Forecast

Advertisements
Track Severe Weather on mobile